createdAt,value
2022-12-08T00:01:32.457Z,100457.94
2022-12-08T00:04:01.264Z,100466.34
2022-12-08T00:06:50.549Z,100462.13
2022-12-08T00:09:23.763Z,100467.22
2022-12-08T00:11:57.009Z,100467.22
2022-12-08T00:14:29.012Z,100469.78
2022-12-08T00:16:57.515Z,100470.63
2022-12-08T00:19:26.157Z,100463.84
2022-12-08T00:21:56.022Z,100460.47
2022-12-08T00:24:26.593Z,100460.53
2022-12-08T00:26:54.461Z,100457.13
2022-12-08T00:29:22.422Z,100454.53
2022-12-08T00:31:50.330Z,100446.06
2022-12-08T00:34:18.409Z,100450.31
2022-12-08T00:36:46.429Z,100446.03
2022-12-08T00:39:16.973Z,100440.97
2022-12-08T00:42:02.562Z,100443.47
2022-12-08T00:44:33.575Z,100442.66
2022-12-08T00:47:01.465Z,100451.94
2022-12-08T00:49:29.318Z,100442.66
2022-12-08T00:51:57.255Z,100437.56
2022-12-08T00:54:26.567Z,100428.25
2022-12-08T00:56:54.551Z,100430.78
2022-12-08T00:59:22.457Z,100432.50
2022-12-08T01:01:50.397Z,100431.66
2022-12-08T01:04:19.985Z,100435.88
2022-12-08T01:06:48.497Z,100437.59
2022-12-08T01:09:18.569Z,100429.13
2022-12-08T01:11:48.041Z,100428.25
2022-12-08T01:14:16.365Z,100429.13
2022-12-08T01:16:44.926Z,100429.13
2022-12-08T01:19:14.832Z,100430.81
2022-12-08T01:21:43.231Z,100424.88
2022-12-08T01:24:12.429Z,100417.28
2022-12-08T01:26:40.579Z,100420.66
2022-12-08T01:29:10.195Z,100416.44
2022-12-08T01:31:38.042Z,100413.91
2022-12-08T01:34:05.884Z,100411.41
2022-12-08T01:36:37.035Z,100415.69
2022-12-08T01:39:07.283Z,100410.59
2022-12-08T01:41:37.999Z,100403.84
2022-12-08T01:44:44.214Z,100414.00
2022-12-08T01:47:13.558Z,100414.84
2022-12-08T01:49:41.537Z,100418.22
2022-12-08T01:52:15.305Z,100416.53
2022-12-08T01:54:47.598Z,100415.69
2022-12-08T01:57:19.596Z,100412.34
2022-12-08T01:59:51.849Z,100412.38
2022-12-08T02:02:21.404Z,100413.22
2022-12-08T02:04:49.090Z,100409.81
2022-12-08T02:07:18.988Z,100413.16
2022-12-08T02:09:47.708Z,100408.09
2022-12-08T02:12:16.033Z,100406.41
2022-12-08T02:14:44.009Z,100413.22
2022-12-08T02:17:28.342Z,100403.91
2022-12-08T02:20:18.214Z,100403.09
2022-12-08T02:22:55.811Z,100404.78
2022-12-08T02:25:34.593Z,100400.59
2022-12-08T02:28:23.213Z,100404.81
2022-12-08T02:30:59.060Z,100404.81
2022-12-08T02:33:54.408Z,100404.81
2022-12-08T02:36:26.041Z,100399.72
2022-12-08T02:39:01.969Z,100403.13
2022-12-08T02:41:39.486Z,100403.94
2022-12-08T02:44:13.577Z,100412.41
2022-12-08T02:46:46.470Z,100410.72
2022-12-08T02:49:16.753Z,100403.94
2022-12-08T02:51:44.746Z,100404.78
2022-12-08T02:54:13.079Z,100401.41
2022-12-08T02:56:55.583Z,100398.91
2022-12-08T02:59:42.772Z,100404.81
2022-12-08T03:02:29.717Z,100397.19
2022-12-08T03:05:07.883Z,100396.34
2022-12-08T03:07:42.163Z,100399.72
2022-12-08T03:10:13.596Z,100406.47
2022-12-08T03:12:49.551Z,100403.94
2022-12-08T03:15:21.432Z,100397.19
2022-12-08T03:17:53.809Z,100399.72
2022-12-08T03:20:26.195Z,100397.19
2022-12-08T03:22:56.918Z,100395.50
2022-12-08T03:25:27.181Z,100393.78
2022-12-08T03:27:55.514Z,100387.03
2022-12-08T03:30:23.497Z,100397.19
2022-12-08T03:32:56.411Z,100391.22
2022-12-08T03:35:28.349Z,100381.94
2022-12-08T03:38:04.090Z,100382.81
2022-12-08T03:40:32.237Z,100377.75
2022-12-08T03:43:00.238Z,100389.56
2022-12-08T03:45:28.278Z,100387.91
2022-12-08T03:47:56.453Z,100381.09
2022-12-08T03:50:25.894Z,100379.41
2022-12-08T03:52:53.709Z,100378.56
2022-12-08T03:55:22.706Z,100385.34
2022-12-08T03:57:50.535Z,100384.50
2022-12-08T04:00:19.065Z,100380.28
2022-12-08T04:02:46.947Z,100391.25
2022-12-08T04:05:14.817Z,100386.19
2022-12-08T04:07:44.093Z,100384.50
2022-12-08T04:10:12.387Z,100387.91
2022-12-08T04:12:40.210Z,100387.91
2022-12-08T04:15:09.237Z,100392.97
2022-12-08T04:17:37.049Z,100387.91
2022-12-08T04:20:05.515Z,100387.91
2022-12-08T04:22:33.474Z,100384.50
2022-12-08T04:25:02.965Z,100379.41
2022-12-08T04:27:30.789Z,100370.13
2022-12-08T04:29:58.598Z,100370.94
2022-12-08T04:32:26.490Z,100367.59
2022-12-08T04:34:54.304Z,100367.59
2022-12-08T04:37:22.141Z,100367.59
2022-12-08T04:39:49.960Z,100367.59
2022-12-08T04:42:19.247Z,100364.22
2022-12-08T04:44:47.049Z,100365.88
2022-12-08T04:47:14.963Z,100367.56
2022-12-08T04:49:42.846Z,100371.81
2022-12-08T04:52:10.753Z,100374.34
2022-12-08T04:54:38.624Z,100376.88
2022-12-08T04:57:06.711Z,100381.09
2022-12-08T04:59:35.928Z,100376.88
2022-12-08T05:02:04.060Z,100382.81
2022-12-08T05:04:31.990Z,100381.09
2022-12-08T05:06:59.897Z,100384.50
2022-12-08T05:09:28.190Z,100393.78
2022-12-08T05:11:56.037Z,100392.09
2022-12-08T05:14:23.918Z,100391.25
2022-12-08T05:16:53.236Z,100393.78
2022-12-08T05:19:21.106Z,100399.72
2022-12-08T05:21:49.085Z,100398.03
2022-12-08T05:24:16.887Z,100395.50
2022-12-08T05:26:44.788Z,100401.41
2022-12-08T05:29:12.621Z,100397.19
2022-12-08T05:31:40.568Z,100395.50
2022-12-08T05:34:10.009Z,100395.50
2022-12-08T05:36:37.805Z,100387.91
2022-12-08T05:39:05.822Z,100392.97
2022-12-08T05:41:33.696Z,100392.13
2022-12-08T05:44:01.551Z,100389.56
2022-12-08T05:46:29.789Z,100389.56
2022-12-08T05:48:57.750Z,100395.50
2022-12-08T05:51:26.995Z,100394.66
2022-12-08T05:53:55.392Z,100393.78
2022-12-08T05:56:23.550Z,100397.19
2022-12-08T05:58:51.666Z,100403.13
2022-12-08T06:01:21.800Z,100407.34
2022-12-08T06:03:49.822Z,100406.47
2022-12-08T06:06:17.693Z,100412.41
2022-12-08T06:08:46.918Z,100409.00
2022-12-08T06:11:20.937Z,100414.06
2022-12-08T06:13:49.180Z,100413.25
2022-12-08T06:16:19.092Z,100409.84
2022-12-08T06:18:47.769Z,100409.00
2022-12-08T06:21:17.712Z,100412.41
2022-12-08T06:23:50.062Z,100407.31
2022-12-08T06:26:19.463Z,100409.84
2022-12-08T06:28:47.364Z,100406.47
2022-12-08T06:31:18.014Z,100405.63
2022-12-08T06:33:46.587Z,100400.56
2022-12-08T06:36:15.823Z,100409.00
2022-12-08T06:38:44.253Z,100407.31
2022-12-08T06:41:14.505Z,100409.88
2022-12-08T06:43:42.437Z,100408.19
2022-12-08T06:46:13.758Z,100403.13
2022-12-08T06:48:41.732Z,100410.72
2022-12-08T06:51:11.298Z,100404.78
2022-12-08T06:53:39.270Z,100401.41
2022-12-08T06:56:08.301Z,100400.56
2022-12-08T06:58:37.719Z,100409.00
2022-12-08T07:01:07.393Z,100410.72
2022-12-08T07:03:35.655Z,100409.84
2022-12-08T07:06:04.511Z,100408.16
2022-12-08T07:08:33.150Z,100408.16
2022-12-08T07:11:01.119Z,100410.69
2022-12-08T07:13:28.940Z,100413.25
2022-12-08T07:15:58.128Z,100409.00
2022-12-08T07:18:26.009Z,100417.47
2022-12-08T07:20:53.879Z,100419.16
2022-12-08T07:23:21.746Z,100420.00
2022-12-08T07:25:49.576Z,100418.31
2022-12-08T07:28:17.581Z,100408.19
2022-12-08T07:30:45.496Z,100412.38
2022-12-08T07:33:14.717Z,100412.38
2022-12-08T07:35:47.762Z,100420.84
2022-12-08T07:38:16.896Z,100421.66
2022-12-08T07:40:44.745Z,100413.22
2022-12-08T07:43:12.551Z,100415.75
2022-12-08T07:45:41.737Z,100415.75
2022-12-08T07:48:09.738Z,100420.84
2022-12-08T07:50:39.130Z,100420.84
2022-12-08T07:53:07.434Z,100425.06
2022-12-08T07:55:35.440Z,100426.75
2022-12-08T07:58:03.254Z,100429.28
2022-12-08T08:00:31.143Z,100418.31
2022-12-08T08:02:59.112Z,100431.00
2022-12-08T08:05:27.117Z,100436.88
2022-12-08T08:07:56.437Z,100440.28
2022-12-08T08:10:24.314Z,100437.75
2022-12-08T08:12:52.193Z,100430.13
2022-12-08T08:15:21.342Z,100426.75
2022-12-08T08:17:50.925Z,100428.47
2022-12-08T08:20:19.752Z,100435.19
2022-12-08T08:22:48.212Z,100436.06
2022-12-08T08:25:18.474Z,100434.34
2022-12-08T08:27:48.280Z,100432.66
2022-12-08T08:30:20.768Z,100427.59
2022-12-08T08:32:49.385Z,100426.75
2022-12-08T08:35:17.667Z,100429.28
2022-12-08T08:37:48.830Z,100427.59
2022-12-08T08:40:18.875Z,100425.94
2022-12-08T08:42:46.488Z,100424.25
2022-12-08T08:45:14.427Z,100430.16
2022-12-08T08:47:42.331Z,100426.75
2022-12-08T08:50:10.665Z,100431.81
2022-12-08T08:52:38.666Z,100416.63
2022-12-08T08:55:07.429Z,100420.00
2022-12-08T08:57:36.714Z,100414.91
2022-12-08T09:00:05.846Z,100416.59
2022-12-08T09:02:33.891Z,100422.53
2022-12-08T09:05:01.823Z,100411.53
2022-12-08T09:07:29.910Z,100414.91
2022-12-08T09:10:01.803Z,100420.84
2022-12-08T09:12:30.683Z,100421.66
2022-12-08T09:14:59.915Z,100425.06
2022-12-08T09:17:27.780Z,100420.84
2022-12-08T09:19:55.619Z,100431.81
2022-12-08T09:22:23.878Z,100424.19
2022-12-08T09:24:54.127Z,100427.56
2022-12-08T09:27:21.986Z,100426.72
2022-12-08T09:29:50.902Z,100418.25
2022-12-08T09:32:20.105Z,100423.31
2022-12-08T09:34:52.137Z,100419.94
2022-12-08T09:37:20.410Z,100415.69
2022-12-08T09:39:48.465Z,100421.63
2022-12-08T09:42:29.431Z,100423.31
2022-12-08T09:45:04.091Z,100419.09
2022-12-08T09:47:38.405Z,100414.88
2022-12-08T09:50:12.933Z,100414.88
2022-12-08T09:52:44.924Z,100423.25
2022-12-08T09:55:25.914Z,100414.81
2022-12-08T09:58:04.254Z,100414.81
2022-12-08T10:00:32.754Z,100416.47
2022-12-08T10:03:02.032Z,100413.94
2022-12-08T10:05:35.697Z,100408.88
2022-12-08T10:08:13.360Z,100402.94
2022-12-08T10:10:48.025Z,100410.53
2022-12-08T10:13:23.005Z,100416.44
2022-12-08T10:15:58.883Z,100416.44
2022-12-08T10:18:31.411Z,100415.56
2022-12-08T10:21:11.991Z,100407.97
2022-12-08T10:23:41.800Z,100408.78
2022-12-08T10:26:13.972Z,100412.19
2022-12-08T10:28:45.090Z,100410.47
2022-12-08T10:31:18.686Z,100406.25
2022-12-08T10:33:50.485Z,100413.84
2022-12-08T10:36:19.254Z,100412.09
2022-12-08T10:38:47.821Z,100424.78
2022-12-08T10:41:18.335Z,100420.53
2022-12-08T10:43:50.249Z,100423.91
2022-12-08T10:46:20.988Z,100423.88
2022-12-08T10:48:52.894Z,100421.34
2022-12-08T10:51:28.204Z,100436.56
2022-12-08T10:53:58.392Z,100427.25
2022-12-08T10:56:29.672Z,100426.38
2022-12-08T10:59:21.626Z,100428.00
2022-12-08T11:01:52.145Z,100426.28
2022-12-08T11:04:23.656Z,100422.88
2022-12-08T11:06:53.269Z,100427.09
2022-12-08T11:09:32.092Z,100425.34
2022-12-08T11:12:00.905Z,100423.63
2022-12-08T11:14:30.595Z,100431.19
2022-12-08T11:17:09.792Z,100433.75
2022-12-08T11:19:41.237Z,100436.25
2022-12-08T11:22:23.298Z,100436.19
2022-12-08T11:24:59.571Z,100438.72
2022-12-08T11:27:28.231Z,100437.81
2022-12-08T11:29:56.340Z,100438.66
2022-12-08T11:32:24.217Z,100440.34
2022-12-08T11:35:00.185Z,100444.59
2022-12-08T11:37:35.344Z,100438.63
2022-12-08T11:40:08.150Z,100434.38
2022-12-08T11:42:45.569Z,100436.03
2022-12-08T11:45:27.048Z,100429.28
2022-12-08T11:48:04.639Z,100440.22
2022-12-08T11:50:43.555Z,100439.34
2022-12-08T11:53:19.866Z,100442.69
2022-12-08T11:55:53.454Z,100440.13
2022-12-08T11:58:26.172Z,100440.94
2022-12-08T12:00:54.043Z,100446.84
2022-12-08T12:03:30.588Z,100434.13
2022-12-08T12:06:38.248Z,100439.16
2022-12-08T12:09:14.801Z,100441.69
2022-12-08T12:12:09.225Z,100445.06
2022-12-08T12:15:07.660Z,100439.09
2022-12-08T12:17:46.283Z,100442.47
2022-12-08T12:20:20.661Z,100445.00
2022-12-08T12:22:53.018Z,100435.69
2022-12-08T12:25:23.833Z,100439.91
2022-12-08T12:27:57.153Z,100432.25
2022-12-08T12:30:27.698Z,100439.00
2022-12-08T12:32:59.929Z,100434.78
2022-12-08T12:35:34.546Z,100433.09
2022-12-08T12:38:29.432Z,100433.13
2022-12-08T12:41:03.151Z,100432.25
2022-12-08T12:43:33.261Z,100434.00
2022-12-08T12:46:49.948Z,100439.06
2022-12-08T12:49:54.720Z,100442.44
2022-12-08T12:52:46.682Z,100445.81
2022-12-08T12:55:51.493Z,100448.41
2022-12-08T12:58:40.868Z,100445.00
2022-12-08T13:01:37.818Z,100439.94
2022-12-08T13:04:08.566Z,100445.06
2022-12-08T13:06:40.551Z,100442.53
2022-12-08T13:09:19.823Z,100442.59
2022-12-08T13:11:51.251Z,100440.06
2022-12-08T13:14:31.306Z,100448.59
2022-12-08T13:17:01.322Z,100440.97
2022-12-08T13:19:33.161Z,100440.97
2022-12-08T13:22:02.605Z,100441.88
2022-12-08T13:24:35.088Z,100440.13
2022-12-08T13:27:34.188Z,100443.59
2022-12-08T13:30:42.728Z,100444.44
2022-12-08T13:33:18.534Z,100447.00
2022-12-08T13:35:54.968Z,100447.03
2022-12-08T13:38:27.447Z,100443.63
2022-12-08T13:40:58.204Z,100448.72
2022-12-08T13:43:48.278Z,100451.31
2022-12-08T13:56:37.497Z,100459.88
2022-12-08T13:58:06.333Z,100469.19
2022-12-08T14:00:34.326Z,100470.94
2022-12-08T14:03:05.370Z,100477.72
2022-12-08T14:06:10.901Z,100489.59
2022-12-08T14:08:58.976Z,100494.69
2022-12-08T14:11:34.549Z,100487.09
2022-12-08T14:14:04.805Z,100484.59
2022-12-08T14:16:42.867Z,100484.59
2022-12-08T14:19:24.261Z,100488.00
2022-12-08T14:21:58.964Z,100483.84
2022-12-08T14:24:28.512Z,100483.00
2022-12-08T14:27:01.041Z,100481.31
2022-12-08T14:29:39.061Z,100474.50
2022-12-08T14:32:19.498Z,100483.00
2022-12-08T14:34:53.753Z,100485.59
2022-12-08T14:37:22.848Z,100477.97
2022-12-08T14:39:51.050Z,100480.53
2022-12-08T14:42:24.564Z,100478.84
2022-12-08T14:45:02.072Z,100476.31
2022-12-08T14:47:31.692Z,100492.41
2022-12-08T14:50:01.560Z,100490.69
2022-12-08T14:52:30.078Z,100491.59
2022-12-08T14:55:00.752Z,100491.59
2022-12-08T14:57:36.393Z,100495.81
2022-12-08T15:00:19.435Z,100494.16
2022-12-08T15:02:50.077Z,100500.94
2022-12-08T15:05:22.321Z,100501.84
2022-12-08T15:07:51.957Z,100496.78
2022-12-08T15:10:25.226Z,100498.50
2022-12-08T15:13:02.205Z,100501.03
2022-12-08T15:15:30.924Z,100503.56
2022-12-08T15:18:13.705Z,100499.31
2022-12-08T15:20:45.444Z,100494.22
2022-12-08T15:23:21.572Z,100498.44
2022-12-08T15:25:49.853Z,100503.56
2022-12-08T15:28:19.808Z,100502.72
2022-12-08T15:30:48.553Z,100499.34
2022-12-08T15:33:16.390Z,100502.72
2022-12-08T15:35:46.347Z,100499.34
2022-12-08T15:38:21.721Z,100505.25
2022-12-08T15:40:50.120Z,100514.56
2022-12-08T15:43:17.968Z,100506.94
2022-12-08T15:45:57.980Z,100507.81
2022-12-08T15:48:28.921Z,100502.75
2022-12-08T15:50:59.059Z,100506.94
2022-12-08T15:53:27.230Z,100520.50
2022-12-08T15:56:26.985Z,100512.03
2022-12-08T15:58:54.841Z,100521.41
2022-12-08T16:01:24.049Z,100519.69
2022-12-08T16:07:20.111Z,100521.41
2022-12-08T16:09:34.167Z,100525.63
2022-12-08T16:12:19.500Z,100529.84
2022-12-08T16:15:47.357Z,100522.25
2022-12-08T16:17:36.611Z,100529.03
2022-12-08T16:20:07.005Z,100519.69
2022-12-08T16:22:56.781Z,100526.50
2022-12-08T16:25:24.838Z,100524.78
2022-12-08T16:28:17.534Z,100522.28
2022-12-08T16:30:43.491Z,100526.50
2022-12-08T16:33:13.112Z,100531.56
2022-12-08T16:35:41.776Z,100538.31
2022-12-08T16:38:14.673Z,100535.78
2022-12-08T16:40:59.358Z,100529.03
2022-12-08T16:43:27.177Z,100521.41
2022-12-08T16:45:55.156Z,100523.06
2022-12-08T16:48:23.333Z,100531.53
2022-12-08T16:50:51.505Z,100531.53
2022-12-08T16:53:20.823Z,100535.72
2022-12-08T16:55:49.407Z,100525.56
2022-12-08T16:58:18.656Z,100528.13
2022-12-08T17:00:46.686Z,100535.72
2022-12-08T17:03:16.232Z,100538.25
2022-12-08T17:05:44.294Z,100536.56
2022-12-08T17:08:13.281Z,100533.19
2022-12-08T17:10:43.286Z,100539.13
2022-12-08T17:13:13.030Z,100538.25
2022-12-08T17:15:41.519Z,100542.47
2022-12-08T17:18:09.385Z,100540.78
2022-12-08T17:20:37.207Z,100539.94
2022-12-08T17:23:05.285Z,100549.28
2022-12-08T17:25:33.425Z,100539.06
2022-12-08T17:28:03.021Z,100537.38
2022-12-08T17:30:31.333Z,100539.06
2022-12-08T17:32:59.217Z,100543.28
2022-12-08T17:35:27.069Z,100549.19
2022-12-08T17:37:55.112Z,100544.09
2022-12-08T17:40:27.994Z,100555.97
2022-12-08T17:42:56.161Z,100549.16
2022-12-08T17:45:26.102Z,100548.34
2022-12-08T17:47:54.150Z,100547.47
2022-12-08T17:50:22.052Z,100546.66
2022-12-08T17:52:51.550Z,100548.38
2022-12-08T17:55:19.389Z,100549.19
2022-12-08T17:57:48.193Z,100550.06
2022-12-08T18:00:16.894Z,100556.00
2022-12-08T18:02:48.462Z,100552.59
2022-12-08T18:05:16.421Z,100555.13
2022-12-08T18:07:44.280Z,100557.69
2022-12-08T18:10:12.344Z,100553.44
2022-12-08T18:12:40.824Z,100564.44
2022-12-08T18:15:11.270Z,100557.69
2022-12-08T18:17:39.103Z,100559.38
2022-12-08T18:20:10.354Z,100563.63
2022-12-08T18:22:38.466Z,100570.41
2022-12-08T18:25:07.766Z,100568.72
2022-12-08T18:27:40.028Z,100580.53
2022-12-08T18:30:18.104Z,100583.94
2022-12-08T18:32:46.484Z,100586.47
2022-12-08T18:35:15.793Z,100585.63
2022-12-08T18:37:44.174Z,100589.00
2022-12-08T18:40:13.171Z,100587.28
2022-12-08T18:42:41.193Z,100593.22
2022-12-08T18:45:10.043Z,100586.47
2022-12-08T18:47:39.693Z,100589.00
2022-12-08T18:50:08.980Z,100595.75
2022-12-08T18:52:38.195Z,100596.59
2022-12-08T18:55:07.509Z,100594.88
2022-12-08T18:57:35.667Z,100593.19
2022-12-08T19:00:04.885Z,100588.09
2022-12-08T19:02:33.211Z,100596.59
2022-12-08T19:05:01.378Z,100594.03
2022-12-08T19:07:29.217Z,100590.63
2022-12-08T19:10:01.670Z,100593.19
2022-12-08T19:12:29.647Z,100594.03
2022-12-08T19:14:58.181Z,100592.31
2022-12-08T19:17:26.627Z,100606.72
2022-12-08T19:19:54.520Z,100603.31
2022-12-08T19:22:22.395Z,100595.69
2022-12-08T19:24:50.221Z,100594.81
2022-12-08T19:27:19.749Z,100600.75
2022-12-08T19:29:47.608Z,100597.34
2022-12-08T19:32:15.579Z,100598.19
2022-12-08T19:34:43.449Z,100599.00
2022-12-08T19:37:12.647Z,100606.63
2022-12-08T19:39:58.762Z,100611.69
2022-12-08T19:42:45.674Z,100612.53
2022-12-08T19:45:17.073Z,100615.06
2022-12-08T19:47:45.233Z,100625.25
2022-12-08T19:50:33.115Z,100627.78
2022-12-08T19:53:01.685Z,100630.31
2022-12-08T19:55:29.839Z,100634.53
2022-12-08T19:57:59.823Z,100623.53
2022-12-08T20:00:28.018Z,100634.53
2022-12-08T20:02:56.034Z,100633.69
2022-12-08T20:05:24.930Z,100643.88
2022-12-08T20:07:55.797Z,100643.88
2022-12-08T20:10:25.643Z,100649.75
2022-12-08T20:13:13.479Z,100650.56
2022-12-08T20:15:43.989Z,100645.50
2022-12-08T20:18:12.371Z,100646.31
2022-12-08T20:20:41.089Z,100653.94
2022-12-08T20:23:09.325Z,100650.56
2022-12-08T20:25:39.089Z,100648.81
2022-12-08T20:28:09.351Z,100650.53
2022-12-08T20:30:39.318Z,100644.56
2022-12-08T20:33:08.966Z,100653.06
2022-12-08T20:35:36.798Z,100660.69
2022-12-08T20:38:04.681Z,100667.47
2022-12-08T20:40:32.555Z,100661.50
2022-12-08T20:43:00.652Z,100665.75
2022-12-08T20:45:28.795Z,100664.03
2022-12-08T20:47:56.621Z,100656.38
2022-12-08T20:50:26.592Z,100658.94
2022-12-08T20:52:55.366Z,100662.31
2022-12-08T20:55:23.390Z,100664.88
2022-12-08T20:57:51.501Z,100666.53
2022-12-08T21:00:21.227Z,100668.25
2022-12-08T21:02:56.130Z,100674.19
2022-12-08T21:05:26.033Z,100675.88
2022-12-08T21:07:54.078Z,100672.47
2022-12-08T21:10:22.184Z,100679.25
2022-12-08T21:12:50.132Z,100678.41
2022-12-08T21:15:18.050Z,100680.06
2022-12-08T21:17:46.079Z,100683.50
2022-12-08T21:20:14.527Z,100684.31
2022-12-08T21:22:44.066Z,100693.66
2022-12-08T21:25:12.344Z,100689.41
2022-12-08T21:27:40.959Z,100689.38
2022-12-08T21:30:11.350Z,100689.38
2022-12-08T21:32:40.357Z,100685.97
2022-12-08T21:35:09.690Z,100689.38
2022-12-08T21:37:38.006Z,100687.66
2022-12-08T21:40:08.967Z,100688.47
2022-12-08T21:42:46.265Z,100692.75
2022-12-08T21:45:16.455Z,100693.59
2022-12-08T21:47:47.146Z,100692.75
2022-12-08T21:50:16.229Z,100694.41
2022-12-08T21:52:47.212Z,100684.25
2022-12-08T21:55:20.723Z,100690.19
2022-12-08T21:57:48.843Z,100692.75
2022-12-08T22:00:18.534Z,100704.59
2022-12-08T22:02:47.678Z,100694.41
2022-12-08T22:05:15.785Z,100691.00
2022-12-08T22:07:43.937Z,100701.19
2022-12-08T22:10:12.306Z,100702.91
2022-12-08T22:12:41.785Z,100688.47
2022-12-08T22:15:11.973Z,100697.84
2022-12-08T22:17:42.221Z,100700.38
2022-12-08T22:20:12.898Z,100698.66
2022-12-08T22:22:41.040Z,100703.78
2022-12-08T22:25:12.038Z,100694.44
2022-12-08T22:27:42.134Z,100696.13
2022-12-08T22:32:23.541Z,100708.88
2022-12-08T22:34:51.532Z,100708.94
2022-12-08T22:37:19.468Z,100714.03
2022-12-08T22:39:47.430Z,100708.94
2022-12-08T22:42:16.057Z,100721.59
2022-12-08T22:44:43.991Z,100724.13
2022-12-08T22:47:12.157Z,100725.84
2022-12-08T22:49:41.437Z,100720.75
2022-12-08T22:52:09.812Z,100726.66
2022-12-08T22:54:37.936Z,100724.97
2022-12-08T22:57:05.820Z,100730.03
2022-12-08T22:59:37.592Z,100730.88
2022-12-08T23:02:05.485Z,100737.63
2022-12-08T23:04:36.013Z,100733.38
2022-12-08T23:07:05.980Z,100729.97
2022-12-08T23:09:33.857Z,100727.44
2022-12-08T23:12:01.741Z,100725.75
2022-12-08T23:14:29.614Z,100729.13
2022-12-08T23:16:57.547Z,100725.78
2022-12-08T23:19:25.650Z,100727.47
2022-12-08T23:21:53.550Z,100730.88
2022-12-08T23:24:23.123Z,100728.34
2022-12-08T23:26:51.022Z,100731.72
2022-12-08T23:29:18.870Z,100723.25
2022-12-08T23:31:46.793Z,100732.59
2022-12-08T23:34:14.993Z,100741.94
2022-12-08T23:36:43.304Z,100750.44
2022-12-08T23:41:23.026Z,100741.19
2022-12-08T23:43:51.912Z,100743.75
2022-12-08T23:46:22.157Z,100736.97
2022-12-08T23:48:50.766Z,100737.81
2022-12-08T23:51:19.194Z,100742.91
2022-12-08T23:53:47.711Z,100733.59
2022-12-08T23:56:18.024Z,100742.13
2022-12-08T23:58:47.763Z,100745.50
